Aérodrome :
LOGIN :

S'inscrire | Disclaimer

   EN    FR    IT 

 










Légende :    VFR   VFR Marginal   IFR   IFR Intensif   IFR Très Intensif
Visi : 
Plafond : 
>= 8 km
>= 3000ft
5 à 8 km
1000 à 3000 ft
1500m à 5 km
500 à 1000 ft
800 à 1500m
200 à 500 ft
< 800m
< 200 ft
Symboles :   Orages  Brouillard  Fortes neiges  Fortes précipitations  Vent > 20 kt
SIGMETs :   Divers  Orages  Givrage  Turbulence  Onde Orograph.  Cendres Volcan.






- Altitude de l'aérodrome : 348 ft
- Code IATA : LDV


LFRJ - Landivisiau

DERNIER METAR :
  • 271400Z AUTO 33013KT 9999 SCT025 BKN030 BKN037 08/05 Q1011 NOSIG

METARs EXPIRÉS :
  • 271330Z AUTO 34013KT 9999 BKN032 09/04 Q1011 NOSIG
  • 271300Z AUTO 35017KT 9999 FEW026 BKN037 09/04 Q1010 TEMPO 34015G28KT
  • 271230Z AUTO 35017KT 9999 FEW026 BKN036 BKN044 08/03 Q1010 TEMPO 34015G28KT
  • 271200Z AUTO 35014KT 9999 BKN025 OVC035 08/04 Q1009 BECMG 34015G28KT
  • 271130Z AUTO 34016KT 9999 SCT027 OVC034 08/04 Q1008

TAF TAF LFRJ
Valide du 27 à 12h jusqu'au 27 à 21h UTC


271100Z 2712/2721 34015G28KT 9999 SCT025 BKN030
BECMG 2714/2716 31010KT



MET'MAP, la Météo Aéronautique d'un coup d'oeil ! - Copyright ORBIFLY Décembre 2007 - Disclaimer

ORBIFLY MET'MAP TEAM :

Programmation & Développement : Alexandra Zaïnal
Sur une idée originale de : Baudouin d'Aumeries
Assistance à la programmation : Marc-Olivier Méhu
Soutien technique & logistique : Manuel Goepfert

Contact : metmap@orbifly.com




SOURCES & CREDITS :

   NOAA